This is the latest recevied weather packets stored in our database for station/object EA5EN. If no packets are shown the sender has not sent any weather packets the latest 10 day(s).
| Time | Temp. | Humidity | Pressure | Rain* | Wind** | Luminosity | Snow |
|---|---|---|---|---|---|---|---|
| 1777500625 | - | - | 1013.7 hPa | 0 mm | - | - | - |
| 1777492850 | 18.89° C | 78% | 1012.6 hPa | 0 mm | - | - | - |
| 1777491039 | 19.44° C | 75% | 1011.9 hPa | 0 mm | - | - | - |
| 1777488641 | 20.56° C | 70% | 1011.1 hPa | 0 mm | - | - | - |
| 1777483831 | 22.78° C | 62% | 1010.5 hPa | 0 mm | - | - | - |
| 1777481455 | 23.33° C | 61% | 1010.1 hPa | 0 mm | - | - | - |
| 1777480870 | 23.33° C | 60% | 1009.8 hPa | 0 mm | - | - | - |
| 1777478475 | 25° C | 55% | 1009.8 hPa | 0 mm | - | - | - |
| 1777476344 | 24.44° C | 57% | 1009.7 hPa | 0 mm | - | - | - |
| 1777474528 | 24.44° C | 56% | 1009.7 hPa | 0 mm | - | - | - |
| 1777472168 | 23.89° C | 58% | 1010 hPa | 0 mm | - | - | - |
| 1777464965 | 24.44° C | 57% | 1010.6 hPa | 0 mm | - | - | - |
| 1777463754 | 23.33° C | 59% | 1010.5 hPa | 0 mm | - | - | - |
| 1777458973 | 22.22° C | 61% | 1011.1 hPa | 0 mm | - | - | - |
| 1777450558 | 19.44° C | 74% | 1011.3 hPa | 0 mm | - | - | - |
| 1777448743 | 18.33° C | 79% | 1011.3 hPa | 0 mm | - | - | - |
| 1777446927 | 17.78° C | 80% | 1010.9 hPa | 0 mm | - | - | - |
| 1777446322 | 17.22° C | 80% | 1010.9 hPa | 0 mm | - | - | - |
| 1777445172 | 16.67° C | 83% | 1010.6 hPa | 0 mm | - | - | - |
| 1777443356 | 16.11° C | 85% | 1010.5 hPa | 0 mm | - | - | - |
| 1777442751 | 15.56° C | 86% | 1010.4 hPa | 0 mm | - | - | - |
| 1777440331 | 15.56° C | 87% | 1010.1 hPa | 0 mm | - | - | - |
| 1777439725 | 15.56° C | 87% | 1010 hPa | 0 mm | - | - | - |
| 1777437970 | 15.56° C | 88% | 1009.8 hPa | 0 mm | - | - | - |
| 1777433129 | 15° C | 89% | 1009.9 hPa | 0 mm | - | - | - |
* Rain latest hour (hover to see other rain measurements)
** Current wind speed in m/s (hover to see current wind gust speed)